Time;durP1;ratioP1;P1;durP2;ratioP2;P2;SDS_P1;SDS_P2;PMS_P1;PMS_P2;Temp;Humidity;BMP_temperature;BMP_pressure;BME280_temperature;BME280_humidity;BME280_pressure;Samples;Min_cycle;Max_cycle;Signal;HPM_P1;HPM_P2
2020/08/08 00:00:43;;;;;;;18.3;16.6;;;;;;;15.93;92.03711;95600.17;;;;
2020/08/08 00:01:54;;;;;;;18.3;16.6;;;;;;;15.93;92.03711;95600.17;;;;
2020/08/08 00:03:00;;;;;;;18.3;16.6;;;;;;;15.93;92.03711;95600.17;;;;
2020/08/08 00:04:07;;;;;;;18.3;16.6;;;;;;;15.93;92.03711;95600.17;;;;
2020/08/08 00:05:12;;;;;;;18.3;16.6;;;;;;;15.93;92.03711;95600.17;;;;
2020/08/08 00:06:19;;;;;;;18.3;16.6;;;;;;;15.93;92.03711;95600.17;;;;
2020/08/08 00:07:24;;;;;;;18.3;16.6;;;;;;;15.93;92.03711;95600.17;;;;
2020/08/08 00:08:30;;;;;;;18.3;16.6;;;;;;;15.93;92.03711;95600.17;;;;
2020/08/08 00:09:36;;;;;;;17.2;15.7;;;;;;;15.81;92.6377;95600.76;;;;
2020/08/08 00:10:43;;;;;;;17.2;15.7;;;;;;;15.81;92.6377;95600.76;;;;
2020/08/08 00:11:48;;;;;;;17.2;15.7;;;;;;;15.81;92.6377;95600.76;;;;
2020/08/08 00:12:53;;;;;;;17.2;15.7;;;;;;;15.81;92.6377;95600.76;;;;
2020/08/08 00:13:58;;;;;;;17.2;15.7;;;;;;;15.81;92.6377;95600.76;;;;
2020/08/08 00:15:03;;;;;;;17.2;15.7;;;;;;;15.81;92.6377;95600.76;;;;
2020/08/08 00:16:09;;;;;;;17.2;15.7;;;;;;;15.81;92.6377;95600.76;;;;
2020/08/08 00:17:14;;;;;;;17.2;15.7;;;;;;;15.81;92.6377;95600.76;;;;
2020/08/08 00:18:21;;;;;;;17.2;15.7;;;;;;;15.81;92.6377;95600.76;;;;
2020/08/08 00:19:27;;;;;;;15.9;14.6;;;;;;;15.67;93.17871;95595.06;;;;
2020/08/08 00:20:33;;;;;;;15.9;14.6;;;;;;;15.67;93.17871;95595.06;;;;
2020/08/08 00:21:40;;;;;;;15.9;14.6;;;;;;;15.67;93.17871;95595.06;;;;
2020/08/08 00:22:47;;;;;;;15.9;14.6;;;;;;;15.67;93.17871;95595.06;;;;
2020/08/08 00:23:52;;;;;;;15.9;14.6;;;;;;;15.67;93.17871;95595.06;;;;
2020/08/08 00:24:57;;;;;;;15.9;14.6;;;;;;;15.67;93.17871;95595.06;;;;
2020/08/08 00:26:03;;;;;;;15.9;14.6;;;;;;;15.67;93.17871;95595.06;;;;
2020/08/08 00:27:11;;;;;;;15.9;14.6;;;;;;;15.67;93.17871;95595.06;;;;
2020/08/08 00:28:15;;;;;;;15.9;14.6;;;;;;;15.67;93.17871;95595.06;;;;
2020/08/08 00:29:20;;;;;;;15.9;14.6;;;;;;;15.67;93.17871;95595.06;;;;
2020/08/08 00:30:31;;;;;;;16.75;15.15;;;;;;;15.61;93.69238;95590.67;;;;
2020/08/08 00:31:36;;;;;;;16.75;15.15;;;;;;;15.61;93.69238;95590.67;;;;
2020/08/08 00:32:42;;;;;;;16.75;15.15;;;;;;;15.61;93.69238;95590.67;;;;
2020/08/08 00:33:57;;;;;;;16.75;15.15;;;;;;;15.61;93.69238;95590.67;;;;
2020/08/08 00:35:03;;;;;;;16.75;15.15;;;;;;;15.61;93.69238;95590.67;;;;
2020/08/08 00:36:07;;;;;;;16.75;15.15;;;;;;;15.61;93.69238;95590.67;;;;
2020/08/08 00:37:12;;;;;;;16.75;15.15;;;;;;;15.61;93.69238;95590.67;;;;
2020/08/08 00:38:19;;;;;;;16.75;15.15;;;;;;;15.61;93.69238;95590.67;;;;
2020/08/08 00:39:28;;;;;;;16.75;15.15;;;;;;;15.61;93.69238;95590.67;;;;
2020/08/08 00:40:34;;;;;;;17.5;15.95;;;;;;;15.47;94.14648;95593.94;;;;
2020/08/08 00:41:39;;;;;;;17.5;15.95;;;;;;;15.47;94.14648;95593.94;;;;
2020/08/08 00:42:53;;;;;;;17.5;15.95;;;;;;;15.47;94.14648;95593.94;;;;
2020/08/08 00:43:59;;;;;;;17.5;15.95;;;;;;;15.47;94.14648;95593.94;;;;
2020/08/08 00:45:04;;;;;;;17.5;15.95;;;;;;;15.47;94.14648;95593.94;;;;
2020/08/08 00:46:13;;;;;;;17.5;15.95;;;;;;;15.47;94.14648;95593.94;;;;
2020/08/08 00:47:26;;;;;;;17.5;15.95;;;;;;;15.47;94.14648;95593.94;;;;
2020/08/08 00:48:34;;;;;;;17.5;15.95;;;;;;;15.47;94.14648;95593.94;;;;
2020/08/08 00:49:41;;;;;;;17.5;15.95;;;;;;;15.47;94.14648;95593.94;;;;
2020/08/08 00:50:46;;;;;;;17.5;15.95;;;;;;;15.47;94.14648;95593.94;;;;
2020/08/08 00:51:53;;;;;;;17.6;15.85;;;;;;;15.38;94.59082;95593.7;;;;
2020/08/08 00:53:01;;;;;;;17.6;15.85;;;;;;;15.38;94.59082;95593.7;;;;
2020/08/08 00:54:06;;;;;;;17.6;15.85;;;;;;;15.38;94.59082;95593.7;;;;
2020/08/08 00:55:11;;;;;;;17.6;15.85;;;;;;;15.38;94.59082;95593.7;;;;
2020/08/08 00:56:18;;;;;;;17.6;15.85;;;;;;;15.38;94.59082;95593.7;;;;
2020/08/08 00:57:24;;;;;;;17.6;15.85;;;;;;;15.38;94.59082;95593.7;;;;
2020/08/08 00:58:30;;;;;;;17.6;15.85;;;;;;;15.38;94.59082;95593.7;;;;
2020/08/08 00:59:36;;;;;;;17.6;15.85;;;;;;;15.38;94.59082;95593.7;;;;
2020/08/08 01:00:43;;;;;;;17.6;15.85;;;;;;;15.38;94.59082;95593.7;;;;
2020/08/08 01:01:49;;;;;;;18.05;16.25;;;;;;;15.22;95.0625;95587.84;;;;
2020/08/08 01:02:52;;;;;;;18.05;16.25;;;;;;;15.22;95.0625;95587.84;;;;
2020/08/08 01:03:58;;;;;;;18.05;16.25;;;;;;;15.22;95.0625;95587.84;;;;
2020/08/08 01:05:02;;;;;;;18.05;16.25;;;;;;;15.22;95.0625;95587.84;;;;
2020/08/08 01:06:09;;;;;;;18.05;16.25;;;;;;;15.22;95.0625;95587.84;;;;
2020/08/08 01:07:15;;;;;;;18.05;16.25;;;;;;;15.22;95.0625;95587.84;;;;
2020/08/08 01:08:22;;;;;;;18.05;16.25;;;;;;;15.22;95.0625;95587.84;;;;
2020/08/08 01:09:29;;;;;;;18.05;16.25;;;;;;;15.22;95.0625;95587.84;;;;
2020/08/08 01:10:36;;;;;;;18.05;16.25;;;;;;;15.22;95.0625;95587.84;;;;
2020/08/08 01:11:42;;;;;;;18.05;16.25;;;;;;;15.22;95.0625;95587.84;;;;
2020/08/08 01:12:50;;;;;;;18.9;17.1;;;;;;;15.14;95.55078;95595.92;;;;
2020/08/08 01:14:00;;;;;;;18.9;17.1;;;;;;;15.14;95.55078;95595.92;;;;
2020/08/08 01:15:19;;;;;;;18.9;17.1;;;;;;;15.14;95.55078;95595.92;;;;
2020/08/08 01:16:28;;;;;;;18.9;17.1;;;;;;;15.14;95.55078;95595.92;;;;
2020/08/08 01:17:33;;;;;;;18.9;17.1;;;;;;;15.14;95.55078;95595.92;;;;
2020/08/08 01:18:41;;;;;;;18.9;17.1;;;;;;;15.14;95.55078;95595.92;;;;
2020/08/08 01:19:48;;;;;;;18.9;17.1;;;;;;;15.14;95.55078;95595.92;;;;
2020/08/08 01:20:59;;;;;;;18.9;17.1;;;;;;;15.14;95.55078;95595.92;;;;
2020/08/08 01:22:13;;;;;;;18.9;17.1;;;;;;;15.14;95.55078;95595.92;;;;
2020/08/08 01:27:13;;;;;;;19.15;17.35;;;;;;;15.01;96.02734;95599.03;;;;
2020/08/08 01:32:14;;;;;;;19.15;17.35;;;;;;;15.01;96.02734;95599.03;;;;
2020/08/08 01:37:14;;;;;;;20.4;18.45;;;;;;;14.97;96.61816;95596.12;;;;
2020/08/08 01:42:14;;;;;;;20.4;18.45;;;;;;;14.97;96.61816;95596.12;;;;
2020/08/08 01:47:15;;;;;;;19.35;17.5;;;;;;;14.88;97.14746;95611.24;;;;
2020/08/08 01:52:15;;;;;;;19.35;17.5;;;;;;;14.88;97.14746;95611.24;;;;
2020/08/08 01:57:15;;;;;;;19.7;17.9;;;;;;;14.82;97.53027;95613.22;;;;
2020/08/08 02:02:16;;;;;;;19.7;17.9;;;;;;;14.82;97.53027;95613.22;;;;
2020/08/08 02:07:16;;;;;;;18.55;16.85;;;;;;;14.7;98.01758;95619.72;;;;
2020/08/08 02:12:16;;;;;;;18.55;16.85;;;;;;;14.7;98.01758;95619.72;;;;
2020/08/08 02:17:17;;;;;;;19.65;17.75;;;;;;;14.63;98.4541;95611.36;;;;
2020/08/08 02:22:17;;;;;;;19.65;17.75;;;;;;;14.63;98.4541;95611.36;;;;
2020/08/08 02:27:18;;;;;;;19.15;17.45;;;;;;;14.51;98.87891;95611.08;;;;
2020/08/08 02:32:18;;;;;;;19.15;17.45;;;;;;;14.51;98.87891;95611.08;;;;
2020/08/08 02:37:18;;;;;;;19.6;17.8;;;;;;;14.45;99.37891;95611.66;;;;
2020/08/08 02:42:19;;;;;;;19.6;17.8;;;;;;;14.45;99.37891;95611.66;;;;
2020/08/08 02:47:19;;;;;;;19.6;17.8;;;;;;;14.45;99.37891;95611.66;;;;
2020/08/08 02:52:20;;;;;;;20;18.1;;;;;;;14.33;99.81348;95606.89;;;;
2020/08/08 02:57:20;;;;;;;20;18.1;;;;;;;14.33;99.81348;95606.89;;;;
2020/08/08 03:02:20;;;;;;;19.4;17.7;;;;;;;14.28;100;95612.67;;;;
2020/08/08 03:07:21;;;;;;;19.4;17.7;;;;;;;14.28;100;95612.67;;;;
2020/08/08 03:12:21;;;;;;;20.1;18.3;;;;;;;14.18;100;95612.9;;;;
2020/08/08 03:17:21;;;;;;;20.1;18.3;;;;;;;14.18;100;95612.9;;;;
2020/08/08 03:22:22;;;;;;;20.9;19;;;;;;;14.17;100;95617.08;;;;
2020/08/08 03:27:22;;;;;;;20.9;19;;;;;;;14.17;100;95617.08;;;;
2020/08/08 03:32:23;;;;;;;21;19.1;;;;;;;14.1;100;95627.86;;;;
2020/08/08 03:37:23;;;;;;;21;19.1;;;;;;;14.1;100;95627.86;;;;
2020/08/08 03:42:24;;;;;;;20.9;18.9;;;;;;;14.08;100;95632.15;;;;
2020/08/08 03:47:24;;;;;;;20.9;18.9;;;;;;;14.08;100;95632.15;;;;
2020/08/08 03:52:24;;;;;;;20.2;18.4;;;;;;;14.01;100;95624.87;;;;
2020/08/08 03:57:25;;;;;;;20.2;18.4;;;;;;;14.01;100;95624.87;;;;
2020/08/08 04:02:26;;;;;;;20.1;18.3;;;;;;;14.02;100;95640.91;;;;
2020/08/08 04:07:26;;;;;;;20.1;18.3;;;;;;;14.02;100;95640.91;;;;
2020/08/08 04:12:27;;;;;;;20.35;18.45;;;;;;;14.01;100;95641.57;;;;
2020/08/08 04:13:33;;;;;;;20.35;18.45;;;;;;;14.01;100;95641.57;;;;
2020/08/08 04:14:51;;;;;;;20.35;18.45;;;;;;;14.01;100;95641.57;;;;
2020/08/08 04:15:57;;;;;;;20.35;18.45;;;;;;;14.01;100;95641.57;;;;
2020/08/08 04:17:06;;;;;;;20.35;18.45;;;;;;;14.01;100;95641.57;;;;
2020/08/08 04:18:19;;;;;;;20.35;18.45;;;;;;;14.01;100;95641.57;;;;
2020/08/08 04:19:33;;;;;;;20.35;18.45;;;;;;;14.01;100;95641.57;;;;
2020/08/08 04:20:37;;;;;;;20.35;18.45;;;;;;;14.01;100;95641.57;;;;
2020/08/08 04:21:50;;;;;;;20.35;18.45;;;;;;;14.01;100;95641.57;;;;
2020/08/08 04:22:57;;;;;;;20.95;18.9;;;;;;;14.1;100;95638.17;;;;
2020/08/08 04:24:11;;;;;;;20.95;18.9;;;;;;;14.1;100;95638.17;;;;
2020/08/08 04:25:17;;;;;;;20.95;18.9;;;;;;;14.1;100;95638.17;;;;
2020/08/08 04:26:29;;;;;;;20.95;18.9;;;;;;;14.1;100;95638.17;;;;
2020/08/08 04:27:33;;;;;;;20.95;18.9;;;;;;;14.1;100;95638.17;;;;
2020/08/08 04:28:41;;;;;;;20.95;18.9;;;;;;;14.1;100;95638.17;;;;
2020/08/08 04:29:47;;;;;;;20.95;18.9;;;;;;;14.1;100;95638.17;;;;
2020/08/08 04:30:55;;;;;;;20.95;18.9;;;;;;;14.1;100;95638.17;;;;
2020/08/08 04:32:00;;;;;;;20.95;18.9;;;;;;;14.1;100;95638.17;;;;
2020/08/08 04:33:10;;;;;;;20.95;18.9;;;;;;;14.1;100;95638.17;;;;
2020/08/08 04:34:24;;;;;;;21.05;19.1;;;;;;;14.16;100;95642.72;;;;
2020/08/08 04:35:34;;;;;;;21.05;19.1;;;;;;;14.16;100;95642.72;;;;
2020/08/08 04:36:42;;;;;;;21.05;19.1;;;;;;;14.16;100;95642.72;;;;
2020/08/08 04:37:47;;;;;;;21.05;19.1;;;;;;;14.16;100;95642.72;;;;
2020/08/08 04:38:52;;;;;;;21.05;19.1;;;;;;;14.16;100;95642.72;;;;
2020/08/08 04:39:58;;;;;;;21.05;19.1;;;;;;;14.16;100;95642.72;;;;
2020/08/08 04:41:06;;;;;;;21.05;19.1;;;;;;;14.16;100;95642.72;;;;
2020/08/08 04:42:11;;;;;;;21.05;19.1;;;;;;;14.16;100;95642.72;;;;
2020/08/08 04:43:18;;;;;;;21.05;19.1;;;;;;;14.16;100;95642.72;;;;
2020/08/08 04:44:24;;;;;;;21.7;19.65;;;;;;;14.31;100;95658.34;;;;
2020/08/08 04:45:28;;;;;;;21.7;19.65;;;;;;;14.31;100;95658.34;;;;
2020/08/08 04:46:33;;;;;;;21.7;19.65;;;;;;;14.31;100;95658.34;;;;
2020/08/08 04:47:41;;;;;;;21.7;19.65;;;;;;;14.31;100;95658.34;;;;
2020/08/08 04:48:51;;;;;;;21.7;19.65;;;;;;;14.31;100;95658.34;;;;
2020/08/08 04:49:56;;;;;;;21.7;19.65;;;;;;;14.31;100;95658.34;;;;
2020/08/08 04:51:02;;;;;;;21.7;19.65;;;;;;;14.31;100;95658.34;;;;
2020/08/08 04:52:07;;;;;;;21.7;19.65;;;;;;;14.31;100;95658.34;;;;
2020/08/08 04:53:13;;;;;;;21.7;19.65;;;;;;;14.31;100;95658.34;;;;
2020/08/08 04:54:22;;;;;;;21.7;19.65;;;;;;;14.31;100;95658.34;;;;
2020/08/08 04:55:53;;;;;;;20.95;19.05;;;;;;;14.46;100;95661.81;;;;
2020/08/08 04:57:06;;;;;;;20.95;19.05;;;;;;;14.46;100;95661.81;;;;
2020/08/08 04:58:26;;;;;;;20.95;19.05;;;;;;;14.46;100;95661.81;;;;
2020/08/08 04:59:34;;;;;;;20.95;19.05;;;;;;;14.46;100;95661.81;;;;
2020/08/08 05:00:42;;;;;;;20.95;19.05;;;;;;;14.46;100;95661.81;;;;
2020/08/08 05:02:00;;;;;;;20.95;19.05;;;;;;;14.46;100;95661.81;;;;
2020/08/08 05:03:07;;;;;;;20.95;19.05;;;;;;;14.46;100;95661.81;;;;
2020/08/08 05:04:27;;;;;;;20.95;19.05;;;;;;;14.46;100;95661.81;;;;
2020/08/08 05:05:53;;;;;;;20.45;18.5;;;;;;;14.7;100;95680.88;;;;
2020/08/08 05:06:57;;;;;;;20.45;18.5;;;;;;;14.7;100;95680.88;;;;
2020/08/08 05:08:27;;;;;;;20.45;18.5;;;;;;;14.7;100;95680.88;;;;
2020/08/08 05:10:21;;;;;;;20.45;18.5;;;;;;;14.7;100;95680.88;;;;
2020/08/08 05:11:45;;;;;;;20.45;18.5;;;;;;;14.7;100;95680.88;;;;
2020/08/08 05:12:50;;;;;;;20.45;18.5;;;;;;;14.7;100;95680.88;;;;
2020/08/08 05:14:17;;;;;;;20.45;18.5;;;;;;;14.7;100;95680.88;;;;
2020/08/08 05:15:25;;;;;;;20.45;18.5;;;;;;;14.7;100;95680.88;;;;
2020/08/08 05:17:06;;;;;;;20.8;18.95;;;;;;;14.92;100;95684.02;;;;
2020/08/08 05:18:29;;;;;;;20.8;18.95;;;;;;;14.92;100;95684.02;;;;
2020/08/08 05:19:39;;;;;;;20.8;18.95;;;;;;;14.92;100;95684.02;;;;
2020/08/08 05:20:47;;;;;;;20.8;18.95;;;;;;;14.92;100;95684.02;;;;
2020/08/08 05:21:52;;;;;;;20.8;18.95;;;;;;;14.92;100;95684.02;;;;
2020/08/08 05:23:14;;;;;;;20.8;18.95;;;;;;;14.92;100;95684.02;;;;
2020/08/08 05:24:32;;;;;;;20.8;18.95;;;;;;;14.92;100;95684.02;;;;
2020/08/08 05:25:44;;;;;;;20.8;18.95;;;;;;;14.92;100;95684.02;;;;
2020/08/08 05:27:07;;;;;;;20.8;18.95;;;;;;;14.92;100;95684.02;;;;
2020/08/08 05:28:23;;;;;;;20.8;18.95;;;;;;;14.92;100;95684.02;;;;
2020/08/08 05:29:31;;;;;;;20.8;18.95;;;;;;;14.92;100;95684.02;;;;
2020/08/08 05:30:40;;;;;;;20.8;18.95;;;;;;;14.92;100;95684.02;;;;
2020/08/08 05:31:46;;;;;;;20.8;18.95;;;;;;;14.92;100;95684.02;;;;
2020/08/08 05:32:51;;;;;;;20.8;18.95;;;;;;;14.92;100;95684.02;;;;
2020/08/08 05:34:00;;;;;;;20.8;18.95;;;;;;;14.92;100;95684.02;;;;
2020/08/08 05:35:08;;;;;;;20.8;18.95;;;;;;;14.92;100;95684.02;;;;
2020/08/08 05:36:20;;;;;;;20.8;18.95;;;;;;;14.92;100;95684.02;;;;
2020/08/08 05:37:28;;;;;;;20.8;18.95;;;;;;;14.92;100;95684.02;;;;
2020/08/08 05:38:35;;;;;;;20.8;18.95;;;;;;;14.92;100;95684.02;;;;
2020/08/08 05:39:41;;;;;;;20.8;18.95;;;;;;;14.92;100;95684.02;;;;
2020/08/08 05:40:50;;;;;;;20.8;18.95;;;;;;;14.92;100;95684.02;;;;
2020/08/08 05:41:58;;;;;;;20.8;18.95;;;;;;;14.92;100;95684.02;;;;
2020/08/08 05:43:07;;;;;;;20.8;18.95;;;;;;;14.92;100;95684.02;;;;
2020/08/08 05:44:19;;;;;;;20.8;18.95;;;;;;;14.92;100;95684.02;;;;
2020/08/08 05:45:24;;;;;;;20.8;18.95;;;;;;;14.92;100;95684.02;;;;
2020/08/08 05:46:29;;;;;;;20.8;18.95;;;;;;;14.92;100;95684.02;;;;
2020/08/08 05:47:37;;;;;;;20.8;18.95;;;;;;;14.92;100;95684.02;;;;
2020/08/08 05:48:44;;;;;;;20.8;18.95;;;;;;;14.92;100;95684.02;;;;
2020/08/08 05:49:51;;;;;;;20.8;18.95;;;;;;;14.92;100;95684.02;;;;
2020/08/08 05:50:55;;;;;;;20.8;18.95;;;;;;;14.92;100;95684.02;;;;
2020/08/08 05:52:06;;;;;;;20.8;18.95;;;;;;;14.92;100;95684.02;;;;
2020/08/08 05:53:17;;;;;;;20.8;18.95;;;;;;;14.92;100;95684.02;;;;
2020/08/08 05:54:28;;;;;;;20.8;18.95;;;;;;;14.92;100;95684.02;;;;
2020/08/08 05:55:35;;;;;;;20.8;18.95;;;;;;;14.92;100;95684.02;;;;
2020/08/08 05:56:43;;;;;;;20.8;18.95;;;;;;;14.92;100;95684.02;;;;
2020/08/08 05:57:48;;;;;;;20.8;18.95;;;;;;;14.92;100;95684.02;;;;
2020/08/08 05:58:54;;;;;;;20.8;18.95;;;;;;;14.92;100;95684.02;;;;
2020/08/08 06:00:08;;;;;;;20.8;18.95;;;;;;;14.92;100;95684.02;;;;
2020/08/08 12:19:40;;;;;;;10.55;9.550001;;;;;;;37.78;33.625;95611.6;;;;
2020/08/08 12:20:45;;;;;;;10.55;9.550001;;;;;;;37.78;33.625;95611.6;;;;
2020/08/08 12:21:51;;;;;;;10.55;9.550001;;;;;;;37.78;33.625;95611.6;;;;
2020/08/08 12:22:56;;;;;;;10.55;9.550001;;;;;;;37.78;33.625;95611.6;;;;
2020/08/08 12:24:03;;;;;;;10.55;9.550001;;;;;;;37.78;33.625;95611.6;;;;
2020/08/08 12:25:11;;;;;;;10.55;9.550001;;;;;;;37.78;33.625;95611.6;;;;
2020/08/08 12:26:19;;;;;;;10.55;9.550001;;;;;;;37.78;33.625;95611.6;;;;
2020/08/08 12:27:23;;;;;;;10.55;9.550001;;;;;;;37.78;33.625;95611.6;;;;
2020/08/08 12:28:29;;;;;;;10.55;9.550001;;;;;;;37.78;33.625;95611.6;;;;
2020/08/08 12:29:37;;;;;;;10.55;9.550001;;;;;;;37.78;33.625;95611.6;;;;
2020/08/08 12:30:45;;;;;;;10.55;9.550001;;;;;;;37.78;33.625;95611.6;;;;
2020/08/08 12:31:49;;;;;;;10.55;9.550001;;;;;;;37.78;33.625;95611.6;;;;
2020/08/08 12:32:54;;;;;;;10.55;9.550001;;;;;;;37.78;33.625;95611.6;;;;
2020/08/08 12:34:00;;;;;;;10.55;9.550001;;;;;;;37.78;33.625;95611.6;;;;
2020/08/08 12:35:04;;;;;;;10.55;9.550001;;;;;;;37.78;33.625;95611.6;;;;
2020/08/08 12:36:10;;;;;;;10.55;9.550001;;;;;;;37.78;33.625;95611.6;;;;
2020/08/08 12:37:17;;;;;;;10.55;9.550001;;;;;;;37.78;33.625;95611.6;;;;
2020/08/08 12:38:24;;;;;;;10.55;9.550001;;;;;;;37.78;33.625;95611.6;;;;
2020/08/08 12:39:29;;;;;;;10.55;9.550001;;;;;;;37.78;33.625;95611.6;;;;
2020/08/08 12:40:36;;;;;;;10.55;9.550001;;;;;;;37.78;33.625;95611.6;;;;
2020/08/08 12:41:42;;;;;;;10.55;9.550001;;;;;;;37.78;33.625;95611.6;;;;
2020/08/08 12:42:47;;;;;;;10.55;9.550001;;;;;;;37.78;33.625;95611.6;;;;
2020/08/08 12:43:52;;;;;;;10.55;9.550001;;;;;;;37.78;33.625;95611.6;;;;
2020/08/08 12:44:57;;;;;;;10.55;9.550001;;;;;;;37.78;33.625;95611.6;;;;
2020/08/08 12:46:08;;;;;;;10.55;9.550001;;;;;;;37.78;33.625;95611.6;;;;
2020/08/08 12:47:13;;;;;;;10.55;9.550001;;;;;;;37.78;33.625;95611.6;;;;
2020/08/08 12:48:19;;;;;;;10.55;9.550001;;;;;;;37.78;33.625;95611.6;;;;
2020/08/08 12:49:24;;;;;;;10.55;9.550001;;;;;;;37.78;33.625;95611.6;;;;
2020/08/08 12:50:30;;;;;;;10.55;9.550001;;;;;;;37.78;33.625;95611.6;;;;
2020/08/08 12:51:36;;;;;;;10.55;9.550001;;;;;;;37.78;33.625;95611.6;;;;
2020/08/08 12:52:41;;;;;;;10.55;9.550001;;;;;;;37.78;33.625;95611.6;;;;
2020/08/08 12:53:47;;;;;;;10.55;9.550001;;;;;;;37.78;33.625;95611.6;;;;
2020/08/08 12:54:52;;;;;;;10.55;9.550001;;;;;;;37.78;33.625;95611.6;;;;
2020/08/08 12:56:00;;;;;;;10.55;9.550001;;;;;;;37.78;33.625;95611.6;;;;
2020/08/08 12:57:09;;;;;;;10.55;9.550001;;;;;;;37.78;33.625;95611.6;;;;
2020/08/08 12:58:13;;;;;;;10.55;9.550001;;;;;;;37.78;33.625;95611.6;;;;
2020/08/08 12:59:20;;;;;;;10.55;9.550001;;;;;;;37.78;33.625;95611.6;;;;
2020/08/08 13:01:30;;;;;;;10.55;9.550001;;;;;;;37.78;33.625;95611.6;;;;
2020/08/08 13:02:39;;;;;;;10.55;9.550001;;;;;;;37.78;33.625;95611.6;;;;
2020/08/08 13:03:42;;;;;;;10.55;9.550001;;;;;;;37.78;33.625;95611.6;;;;
